Time;durP1;ratioP1;P1;durP2;ratioP2;P2;SDS_P1;SDS_P2;PMS_P1;PMS_P2;Temp;Humidity;BMP_temperature;BMP_pressure;BME280_temperature;BME280_humidity;BME280_pressure;Samples;Min_cycle;Max_cycle;Signal;HPM_P1;HPM_P2
2023/01/24 00:02:12;;;;;;;18.95;10.55;;;19.90;60.90;;;;;;5090444;28;20043;-69
2023/01/24 00:04:38;;;;;;;15.27;9.52;;;19.90;60.90;;;;;;5090256;28;20447;-69
2023/01/24 00:07:04;;;;;;;17.83;10.00;;;19.90;60.90;;;;;;5089770;28;20032;-70
2023/01/24 00:09:29;;;;;;;17.83;10.40;;;19.90;60.90;;;;;;5090157;28;20020;-69
2023/01/24 00:11:55;;;;;;;15.82;9.85;;;19.90;60.90;;;;;;5072082;28;20028;-69
2023/01/24 00:14:21;;;;;;;16.38;9.98;;;19.90;60.90;;;;;;5072156;28;20036;-70
2023/01/24 00:16:47;;;;;;;15.88;9.80;;;19.90;61.20;;;;;;5090020;28;20028;-69
2023/01/24 00:19:12;;;;;;;15.07;9.60;;;19.90;61.10;;;;;;5089675;28;20039;-69
2023/01/24 00:21:38;;;;;;;14.73;9.60;;;19.90;61.10;;;;;;5090348;28;20035;-70
2023/01/24 00:24:04;;;;;;;17.48;9.63;;;19.90;61.10;;;;;;5090081;28;20032;-69
2023/01/24 00:26:30;;;;;;;17.80;10.52;;;19.90;61.20;;;;;;5089839;28;20024;-69
2023/01/24 00:28:57;;;;;;;18.52;10.32;;;19.90;61.20;;;;;;5071841;28;20024;-69
2023/01/24 00:31:23;;;;;;;15.25;9.25;;;19.90;61.10;;;;;;5055097;28;20456;-68
2023/01/24 00:33:49;;;;;;;16.20;9.05;;;19.90;61.10;;;;;;5071595;28;21026;-69
2023/01/24 00:36:15;;;;;;;17.42;9.43;;;19.90;61.00;;;;;;5089573;28;20028;-71
2023/01/24 00:38:41;;;;;;;73.30;54.78;;;19.90;61.00;;;;;;5072484;28;20024;-71
2023/01/24 00:41:07;;;;;;;76.95;56.88;;;19.70;53.90;;;;;;5089714;28;20081;-68
2023/01/24 00:43:33;;;;;;;70.78;51.53;;;19.30;46.50;;;;;;5054584;28;20021;-68
2023/01/24 00:45:59;;;;;;;65.93;49.03;;;19.20;47.40;;;;;;5071190;28;20028;-69
2023/01/24 00:48:24;;;;;;;54.75;39.63;;;19.20;48.60;;;;;;5091603;28;20514;-69
2023/01/24 00:50:50;;;;;;;51.63;36.92;;;19.30;52.90;;;;;;5072874;28;20021;-69
2023/01/24 00:53:16;;;;;;;61.15;38.08;;;19.40;53.30;;;;;;5073007;28;20020;-69
2023/01/24 00:55:47;;;;;;;52.40;35.03;;;19.50;53.40;;;;;;5072744;28;20317;-69
2023/01/24 00:58:13;;;;;;;51.53;33.13;;;19.50;53.80;;;;;;5073399;28;20024;-69
2023/01/24 01:00:39;;;;;;;58.05;33.67;;;19.50;53.90;;;;;;5054978;28;20040;-70
2023/01/24 01:03:18;;;;;;;46.47;33.75;;;19.60;54.10;;;;;;5089928;28;20016;-69
2023/01/24 01:05:45;;;;;;;46.75;32.13;;;19.60;54.00;;;;;;5071906;28;20059;-69
2023/01/24 01:08:11;;;;;;;55.03;32.55;;;19.60;54.60;;;;;;5072578;28;20024;-71
2023/01/24 01:10:38;;;;;;;58.33;32.15;;;19.60;54.60;;;;;;5071766;28;20111;-69
2023/01/24 01:13:04;;;;;;;45.22;31.85;;;19.60;54.90;;;;;;5072221;28;20498;-70
2023/01/24 01:15:31;;;;;;;40.13;29.80;;;19.70;54.90;;;;;;5090263;28;20403;-70
2023/01/24 01:17:58;;;;;;;43.28;30.80;;;19.60;55.30;;;;;;5091083;28;20043;-69
2023/01/24 01:20:26;;;;;;;45.45;29.75;;;19.70;55.30;;;;;;5072890;28;20039;-69
2023/01/24 01:22:52;;;;;;;43.47;30.17;;;19.60;55.30;;;;;;5073091;28;20391;-70
2023/01/24 01:25:18;;;;;;;59.35;30.75;;;19.60;55.60;;;;;;5072490;28;20039;-69
2023/01/24 01:27:43;;;;;;;41.33;29.30;;;19.70;55.60;;;;;;5056372;28;20436;-70
2023/01/24 01:30:10;;;;;;;41.58;30.48;;;19.70;55.80;;;;;;5090598;28;20028;-70
2023/01/24 01:32:36;;;;;;;41.08;28.23;;;19.70;55.90;;;;;;5090896;28;20024;-69
2023/01/24 01:35:02;;;;;;;40.08;27.45;;;19.60;55.90;;;;;;5090747;28;20400;-69
2023/01/24 01:37:28;;;;;;;37.92;27.95;;;19.70;56.10;;;;;;5072502;28;20028;-69
2023/01/24 01:39:56;;;;;;;41.83;28.63;;;19.70;56.10;;;;;;5072773;28;20039;-69
2023/01/24 01:42:22;;;;;;;37.58;26.45;;;19.60;56.20;;;;;;5072635;28;20028;-70
2023/01/24 01:44:49;;;;;;;52.45;29.02;;;19.70;56.40;;;;;;5072671;28;20093;-70
2023/01/24 01:47:24;;;;;;;38.92;27.55;;;19.60;56.40;;;;;;5039307;28;20031;-69
2023/01/24 01:50:03;;;;;;;38.83;27.63;;;19.60;56.50;;;;;;5072778;28;20552;-69
2023/01/24 01:52:37;;;;;;;37.22;25.88;;;19.60;56.50;;;;;;5072731;28;20028;-69
2023/01/24 01:55:12;;;;;;;36.53;25.60;;;19.70;56.50;;;;;;5072577;28;20036;-69
2023/01/24 01:57:40;;;;;;;34.10;25.45;;;19.70;56.60;;;;;;5090559;28;20078;-70
2023/01/24 02:00:12;;;;;;;34.42;24.83;;;19.60;56.60;;;;;;5072659;28;20422;-69
2023/01/24 02:02:41;;;;;;;39.00;26.75;;;19.70;56.60;;;;;;5091120;28;20035;-70
2023/01/24 02:05:09;;;;;;;32.75;23.85;;;19.70;56.60;;;;;;5059638;28;20105;-69
2023/01/24 02:07:49;;;;;;;38.08;26.73;;;19.60;56.40;;;;;;5076417;28;20030;-69
2023/01/24 02:10:21;;;;;;;37.85;25.50;;;19.60;56.50;;;;;;5076700;28;20365;-69
2023/01/24 02:12:49;;;;;;;34.03;23.35;;;19.60;56.70;;;;;;5076572;28;20024;-70
2023/01/24 02:18:06;;;;;;;33.47;25.03;;;19.60;56.80;;;;;;5094237;28;20066;-69
2023/01/24 02:20:45;;;;;;;31.70;22.42;;;19.60;56.80;;;;;;5094282;28;20123;-69
2023/01/24 02:23:49;;;;;;;33.70;24.30;;;19.60;56.80;;;;;;5076373;28;20028;-70
2023/01/24 02:26:16;;;;;;;31.80;22.33;;;19.60;56.80;;;;;;5094168;28;20032;-69
2023/01/24 02:29:03;;;;;;;34.25;24.20;;;19.60;56.80;;;;;;5094264;28;20036;-69
2023/01/24 02:31:29;;;;;;;31.95;22.95;;;19.60;56.90;;;;;;5076258;28;20484;-69
2023/01/24 02:33:55;;;;;;;32.90;21.55;;;19.60;56.90;;;;;;5059054;28;20016;-69
2023/01/24 02:36:31;;;;;;;30.67;22.63;;;19.60;57.00;;;;;;5076227;28;20149;-69
2023/01/24 02:39:09;;;;;;;30.75;22.90;;;19.60;57.20;;;;;;5075728;28;20035;-69
2023/01/24 02:41:48;;;;;;;31.48;21.75;;;19.60;57.10;;;;;;5075808;28;20107;-70
2023/01/24 02:44:59;;;;;;;29.13;21.77;;;19.60;57.10;;;;;;5075555;28;20173;-70
2023/01/24 02:47:34;;;;;;;33.50;21.48;;;19.60;57.30;;;;;;5067859;28;20040;-70
2023/01/24 02:50:03;;;;;;;29.27;20.95;;;19.60;57.20;;;;;;5075606;28;20089;-70
2023/01/24 02:55:14;;;;;;;28.63;20.85;;;19.60;57.40;;;;;;5058598;28;20028;-69
2023/01/24 03:00:24;;;;;;;30.02;20.48;;;19.60;57.40;;;;;;5093150;28;20111;-69
2023/01/24 03:02:50;;;;;;;29.48;21.42;;;19.60;57.50;;;;;;5075674;28;20024;-69
2023/01/24 03:05:16;;;;;;;28.88;20.77;;;19.60;57.50;;;;;;5092996;28;20384;-69
2023/01/24 03:07:44;;;;;;;27.45;19.83;;;19.60;57.50;;;;;;5075612;28;20028;-69
2023/01/24 03:10:14;;;;;;;26.55;20.13;;;19.60;57.50;;;;;;5074970;28;20032;-69
2023/01/24 03:34:49;;;;;;;25.80;18.77;;;19.60;57.60;;;;;;5074942;28;20032;-70
2023/01/24 03:40:10;;;;;;;25.15;18.55;;;19.60;57.60;;;;;;5074848;28;20030;-69
2023/01/24 03:42:47;;;;;;;25.98;18.25;;;19.60;57.60;;;;;;5057850;28;20462;-69
2023/01/24 03:45:25;;;;;;;25.38;16.85;;;19.60;57.60;;;;;;5074372;28;20476;-69
2023/01/24 03:48:04;;;;;;;24.25;18.08;;;19.60;57.70;;;;;;5074749;28;20024;-70
2023/01/24 03:53:20;;;;;;;23.80;16.80;;;19.60;57.60;;;;;;5074570;28;20024;-69
2023/01/24 03:55:52;;;;;;;25.92;17.45;;;19.60;57.70;;;;;;5074222;28;20036;-70
2023/01/24 03:58:18;;;;;;;28.25;17.25;;;19.60;57.70;;;;;;5057983;28;20055;-69
2023/01/24 04:00:44;;;;;;;23.08;16.98;;;19.60;57.60;;;;;;5057704;28;20133;-70
2023/01/24 04:03:27;;;;;;;23.27;17.05;;;19.60;57.90;;;;;;5074512;28;20556;-69
2023/01/24 04:05:53;;;;;;;23.55;16.70;;;19.50;57.60;;;;;;5057279;28;20059;-69
2023/01/24 04:08:19;;;;;;;24.77;16.95;;;19.60;57.60;;;;;;5057398;28;20121;-69
2023/01/24 04:10:47;;;;;;;22.80;16.25;;;19.60;57.80;;;;;;5074426;28;20026;-70
2023/01/24 04:13:12;;;;;;;24.33;16.50;;;19.60;57.80;;;;;;5073875;28;20099;-70
2023/01/24 04:15:39;;;;;;;21.83;16.27;;;19.60;57.60;;;;;;5073542;28;20253;-70
2023/01/24 04:18:36;;;;;;;24.42;16.80;;;19.60;57.70;;;;;;5059997;28;20503;-70
2023/01/24 04:21:03;;;;;;;23.60;15.85;;;19.60;57.70;;;;;;5073676;28;20036;-70
2023/01/24 04:23:30;;;;;;;25.13;16.40;;;19.60;57.70;;;;;;5074192;28;20119;-69
2023/01/24 04:25:59;;;;;;;24.90;15.85;;;19.50;57.80;;;;;;5040387;28;20031;-70
2023/01/24 04:28:26;;;;;;;20.75;15.35;;;19.60;57.70;;;;;;5073777;28;20036;-70
2023/01/24 04:31:00;;;;;;;22.65;16.00;;;19.60;57.80;;;;;;5073541;28;20032;-70
2023/01/24 04:33:44;;;;;;;22.50;16.02;;;19.50;57.70;;;;;;5073626;28;20430;-69
2023/01/24 04:36:11;;;;;;;22.13;16.15;;;19.50;57.90;;;;;;5056817;28;20063;-70
2023/01/24 04:38:37;;;;;;;24.48;16.08;;;19.50;57.80;;;;;;5073556;28;20030;-70
2023/01/24 04:41:14;;;;;;;23.33;15.23;;;19.50;57.90;;;;;;5056927;28;20048;-69
2023/01/24 04:43:42;;;;;;;22.98;15.68;;;19.50;57.80;;;;;;5073374;28;20074;-69
2023/01/24 04:46:07;;;;;;;20.50;14.40;;;19.50;57.80;;;;;;5056578;28;20028;-70
2023/01/24 04:48:49;;;;;;;21.75;15.27;;;19.50;57.70;;;;;;5073369;28;20036;-69
2023/01/24 04:51:15;;;;;;;21.30;14.98;;;19.50;57.90;;;;;;5073365;28;20031;-69
2023/01/24 04:53:43;;;;;;;20.80;15.07;;;19.50;57.80;;;;;;5073242;28;20525;-70
2023/01/24 04:56:11;;;;;;;21.00;15.32;;;19.50;57.80;;;;;;5056658;28;20028;-70
2023/01/24 04:58:37;;;;;;;20.65;15.07;;;19.50;57.70;;;;;;5073183;28;20031;-70
2023/01/24 05:01:04;;;;;;;21.50;15.00;;;19.50;57.80;;;;;;5056482;28;20361;-70
2023/01/24 05:03:33;;;;;;;19.17;13.68;;;19.50;57.80;;;;;;5073168;28;20059;-69
2023/01/24 05:05:59;;;;;;;21.08;14.90;;;19.50;58.00;;;;;;5047994;28;20043;-69
2023/01/24 05:08:26;;;;;;;21.25;15.18;;;19.50;57.60;;;;;;5058891;28;20016;-69
2023/01/24 05:10:53;;;;;;;21.83;14.00;;;19.50;57.90;;;;;;5051989;28;20094;-69
2023/01/24 05:13:19;;;;;;;19.30;14.07;;;19.60;57.70;;;;;;5052736;28;20430;-69
2023/01/24 05:15:50;;;;;;;22.00;14.10;;;19.50;57.80;;;;;;5069105;28;20039;-69
2023/01/24 05:18:17;;;;;;;19.83;13.85;;;19.50;57.90;;;;;;5053056;28;20067;-69
2023/01/24 05:20:44;;;;;;;20.20;13.68;;;19.50;57.70;;;;;;5052388;28;20028;-69
2023/01/24 05:23:12;;;;;;;18.45;12.70;;;19.60;57.70;;;;;;5053001;28;20484;-69
2023/01/24 05:25:42;;;;;;;22.10;14.27;;;19.60;57.80;;;;;;5068843;28;20032;-69
2023/01/24 05:28:08;;;;;;;21.30;13.60;;;19.50;57.90;;;;;;5053014;28;20044;-69
2023/01/24 05:30:40;;;;;;;18.95;13.30;;;19.60;57.80;;;;;;5052502;28;20024;-69
2023/01/24 05:33:17;;;;;;;19.83;13.52;;;19.60;57.70;;;;;;5069865;28;20037;-69
2023/01/24 05:35:44;;;;;;;19.00;13.32;;;19.50;57.70;;;;;;5052309;28;20071;-69
2023/01/24 05:38:10;;;;;;;19.35;13.75;;;19.60;57.90;;;;;;5035967;28;20055;-69
2023/01/24 05:40:37;;;;;;;18.10;12.50;;;19.60;57.80;;;;;;5052383;28;20162;-69
2023/01/24 05:43:05;;;;;;;18.17;13.18;;;19.50;57.70;;;;;;5053009;28;20115;-69
2023/01/24 05:45:31;;;;;;;18.02;13.00;;;19.50;57.90;;;;;;5051623;28;20123;-69
2023/01/24 05:47:57;;;;;;;19.02;13.68;;;19.50;58.00;;;;;;5069355;28;20078;-69
2023/01/24 05:50:23;;;;;;;17.73;12.80;;;19.50;57.70;;;;;;5068959;28;20040;-70
2023/01/24 05:53:09;;;;;;;18.48;12.23;;;19.50;57.80;;;;;;5070464;28;20024;-69
2023/01/24 05:55:35;;;;;;;17.67;12.43;;;19.50;57.70;;;;;;5069011;28;20040;-69
2023/01/24 05:58:00;;;;;;;18.48;12.52;;;19.50;57.80;;;;;;5070875;28;20029;-69
2023/01/24 06:00:37;;;;;;;18.67;12.85;;;19.50;57.90;;;;;;5052238;28;20102;-71
2023/01/24 06:03:21;;;;;;;18.00;12.60;;;19.60;58.00;;;;;;5070692;28;20036;-70
2023/01/24 06:05:54;;;;;;;17.55;12.13;;;19.50;57.80;;;;;;5068593;28;20378;-69
2023/01/24 06:08:22;;;;;;;18.33;12.55;;;19.60;57.70;;;;;;5069044;28;20028;-70
2023/01/24 06:10:49;;;;;;;19.38;13.10;;;19.60;57.70;;;;;;5052198;28;20032;-69
2023/01/24 06:13:16;;;;;;;19.27;12.50;;;19.60;58.00;;;;;;5069154;28;20128;-70
2023/01/24 06:15:43;;;;;;;17.45;12.35;;;19.50;57.60;;;;;;5068432;28;20520;-69
2023/01/24 06:18:17;;;;;;;17.17;11.00;;;19.50;57.70;;;;;;5036079;28;20182;-70
2023/01/24 06:20:44;;;;;;;17.63;12.25;;;19.60;57.50;;;;;;5052130;28;20033;-70
2023/01/24 06:23:21;;;;;;;18.85;11.88;;;19.60;57.80;;;;;;5052519;28;20089;-69
2023/01/24 06:25:48;;;;;;;18.10;12.20;;;19.50;57.80;;;;;;5051614;28;20025;-69
2023/01/24 06:28:14;;;;;;;17.50;12.15;;;19.50;57.60;;;;;;5070210;28;20033;-69
2023/01/24 06:30:42;;;;;;;18.92;11.82;;;19.50;57.90;;;;;;5069990;28;20033;-70
2023/01/24 06:33:30;;;;;;;17.58;11.80;;;19.50;58.30;;;;;;5070193;28;20031;-70
2023/01/24 06:36:10;;;;;;;18.30;12.00;;;19.50;57.50;;;;;;5051733;28;20421;-70
2023/01/24 06:38:36;;;;;;;18.55;11.90;;;19.50;57.50;;;;;;5070169;28;20398;-70
2023/01/24 06:41:03;;;;;;;16.92;11.85;;;19.50;57.50;;;;;;5070020;28;20032;-70
2023/01/24 06:43:29;;;;;;;17.13;11.55;;;19.50;57.60;;;;;;5068671;28;20029;-69
2023/01/24 06:45:55;;;;;;;19.10;12.15;;;19.50;57.70;;;;;;5068340;28;20025;-69
2023/01/24 06:48:21;;;;;;;17.55;11.02;;;19.50;57.70;;;;;;5069859;28;20023;-70
2023/01/24 06:50:47;;;;;;;18.27;11.65;;;19.50;57.70;;;;;;5054138;28;20393;-69
2023/01/24 06:53:14;;;;;;;18.08;11.60;;;19.50;57.60;;;;;;5072119;28;20032;-69
2023/01/24 06:55:44;;;;;;;16.15;11.63;;;19.50;57.70;;;;;;5072981;28;20082;-70
2023/01/24 06:58:10;;;;;;;16.52;10.85;;;19.50;57.80;;;;;;5073328;28;20036;-70
2023/01/24 07:00:36;;;;;;;16.35;10.98;;;19.50;57.80;;;;;;5073603;28;20028;-69
2023/01/24 07:03:06;;;;;;;16.85;11.30;;;19.50;57.70;;;;;;5071026;23;20036;-74
2023/01/24 07:05:32;;;;;;;17.70;11.00;;;19.50;58.00;;;;;;5052663;28;20427;-74
2023/01/24 07:07:59;;;;;;;16.58;11.25;;;19.50;57.60;;;;;;5053855;28;20215;-72
2023/01/24 07:10:25;;;;;;;17.52;11.32;;;19.50;57.80;;;;;;5052497;28;20447;-74
2023/01/24 07:12:51;;;;;;;16.48;10.88;;;19.50;57.40;;;;;;5053696;28;20028;-73
2023/01/24 07:15:17;;;;;;;16.92;10.88;;;19.50;57.80;;;;;;5053081;28;20578;-74
2023/01/24 07:17:44;;;;;;;15.82;10.35;;;19.50;57.40;;;;;;5052017;28;20045;-73
2023/01/24 07:20:12;;;;;;;17.48;11.30;;;19.50;57.50;;;;;;5053181;28;20029;-73
2023/01/24 07:22:39;;;;;;;18.48;11.73;;;19.50;57.60;;;;;;5052822;28;20039;-73
2023/01/24 07:25:19;;;;;;;16.52;10.82;;;19.50;57.50;;;;;;5051849;28;20029;-73
2023/01/24 07:27:45;;;;;;;17.08;11.07;;;19.50;57.80;;;;;;5052781;28;20436;-73
2023/01/24 07:30:12;;;;;;;15.52;10.45;;;19.50;57.70;;;;;;5052772;28;20032;-75
2023/01/24 07:32:38;;;;;;;18.25;11.38;;;19.50;57.70;;;;;;5052167;28;20021;-74
2023/01/24 07:35:06;;;;;;;18.10;11.35;;;19.50;58.20;;;;;;5051225;28;20029;-74
2023/01/24 07:37:32;;;;;;;18.52;11.18;;;19.60;58.20;;;;;;5051637;28;20033;-74
2023/01/24 07:39:58;;;;;;;21.50;11.23;;;19.50;58.30;;;;;;5050263;28;20039;-74
2023/01/24 07:42:24;;;;;;;22.02;11.20;;;19.50;58.40;;;;;;5052883;28;20104;-74
2023/01/24 07:44:50;;;;;;;28.20;11.20;;;19.60;58.60;;;;;;5050990;28;20481;-74
2023/01/24 07:47:16;;;;;;;21.55;10.98;;;19.60;58.50;;;;;;5051406;28;20115;-79
2023/01/24 07:49:41;;;;;;;18.60;11.15;;;19.50;58.10;;;;;;5052313;28;20074;-74
2023/01/24 07:52:07;;;;;;;30.70;11.65;;;19.40;55.80;;;;;;5051604;28;20036;-74
2023/01/24 07:54:33;;;;;;;18.25;11.15;;;19.40;54.60;;;;;;5034370;28;20066;-73
2023/01/24 07:57:00;;;;;;;18.17;11.10;;;19.40;56.30;;;;;;5052155;28;20508;-74
2023/01/24 07:59:26;;;;;;;25.65;11.13;;;19.40;55.40;;;;;;5052340;28;20405;-75
2023/01/24 08:01:52;;;;;;;22.38;11.68;;;19.50;57.50;;;;;;5050734;28;20037;-73
2023/01/24 08:04:17;;;;;;;28.48;11.88;;;19.60;57.60;;;;;;5050647;28;20040;-73
2023/01/24 08:07:16;;;;;;;27.92;11.70;;;19.70;57.50;;;;;;5052027;28;20044;-74
2023/01/24 08:09:30;;;;;;;25.92;11.82;;;19.70;57.40;;;;;;5051913;28;20024;-74
2023/01/24 08:11:56;;;;;;;27.45;13.50;;;19.80;58.90;;;;;;5050839;28;20060;-74
2023/01/24 08:14:22;;;;;;;22.10;12.65;;;19.80;59.10;;;;;;5048533;28;20928;-73
2023/01/24 08:16:49;;;;;;;19.55;12.18;;;19.70;58.90;;;;;;5051311;28;20121;-72
2023/01/24 08:19:14;;;;;;;21.88;12.13;;;19.70;59.10;;;;;;5051358;28;20028;-73
2023/01/24 08:21:40;;;;;;;21.38;11.63;;;19.70;58.70;;;;;;5041854;28;20033;-73
2023/01/24 08:24:06;;;;;;;21.38;11.38;;;19.70;58.30;;;;;;5061376;28;20036;-73
2023/01/24 08:26:32;;;;;;;26.33;12.23;;;19.70;58.00;;;;;;5064532;28;20028;-73
2023/01/24 08:28:58;;;;;;;19.70;11.48;;;19.70;57.90;;;;;;5068937;28;20103;-73
2023/01/24 08:31:24;;;;;;;24.35;11.80;;;19.70;58.20;;;;;;5050915;28;20025;-73
2023/01/24 08:33:51;;;;;;;19.08;12.32;;;19.70;58.30;;;;;;5050086;28;20124;-74
2023/01/24 08:36:23;;;;;;;18.95;11.35;;;19.70;58.40;;;;;;5050305;28;20044;-73
2023/01/24 08:38:49;;;;;;;18.30;11.63;;;19.70;58.60;;;;;;5050824;28;20025;-73
2023/01/24 08:41:15;;;;;;;19.25;10.38;;;19.70;58.70;;;;;;5051003;28;20082;-74
2023/01/24 08:43:42;;;;;;;17.98;10.73;;;19.70;58.80;;;;;;5051028;28;20025;-73
2023/01/24 08:46:07;;;;;;;18.75;10.55;;;19.60;58.70;;;;;;5057998;28;20033;-74
2023/01/24 08:48:33;;;;;;;22.02;10.98;;;19.60;58.60;;;;;;5055218;28;20033;-72
2023/01/24 08:51:03;;;;;;;30.10;14.20;;;19.60;58.70;;;;;;5049216;28;20036;-72
2023/01/24 08:53:29;;;;;;;;;;;19.50;55.20;;;;;;5049526;28;20079;-73
2023/01/24 08:55:55;;;;;;;43.30;25.35;;;19.20;47.10;;;;;;5049015;28;20394;-73
2023/01/24 08:58:21;;;;;;;61.03;23.88;;;19.10;50.70;;;;;;5050468;28;20111;-73
2023/01/24 09:00:47;;;;;;;38.75;22.65;;;19.20;49.20;;;;;;5050162;28;20432;-73
2023/01/24 09:03:16;;;;;;;52.28;23.70;;;19.30;51.50;;;;;;5059581;28;20033;-73
2023/01/24 09:05:42;;;;;;;34.05;20.77;;;19.30;52.60;;;;;;5069450;28;20455;-74
2023/01/24 09:08:08;;;;;;;48.30;22.08;;;19.30;51.90;;;;;;5071276;28;20104;-74
2023/01/24 09:10:35;;;;;;;37.63;20.88;;;19.40;52.20;;;;;;5070952;28;20020;-73
2023/01/24 09:13:02;;;;;;;37.75;20.13;;;19.40;51.70;;;;;;5070485;28;20440;-73
2023/01/24 09:15:28;;;;;;;36.83;19.35;;;19.40;52.30;;;;;;5070841;28;20033;-74
2023/01/24 09:17:54;;;;;;;46.17;20.67;;;19.40;53.30;;;;;;5071199;28;20032;-76
2023/01/24 09:20:20;;;;;;;33.22;18.52;;;19.40;53.80;;;;;;5071333;28;20028;-76
2023/01/24 09:22:46;;;;;;;35.88;20.63;;;19.40;53.60;;;;;;5070847;28;20338;-75
2023/01/24 09:25:12;;;;;;;34.28;20.08;;;19.50;54.20;;;;;;5070507;28;20028;-75
2023/01/24 09:27:41;;;;;;;42.58;19.20;;;19.40;54.80;;;;;;5069771;28;20090;-75
2023/01/24 09:30:08;;;;;;;29.53;18.77;;;19.40;54.70;;;;;;5069644;28;20433;-75
2023/01/24 09:32:35;;;;;;;31.65;19.13;;;19.40;55.40;;;;;;5069691;28;20058;-75
2023/01/24 09:35:01;;;;;;;34.67;18.45;;;19.50;55.60;;;;;;5070588;28;20103;-75
2023/01/24 09:37:29;;;;;;;33.42;18.08;;;19.50;54.80;;;;;;5070685;28;20611;-75
2023/01/24 09:39:57;;;;;;;37.75;19.10;;;19.50;54.30;;;;;;5070612;28;20060;-75
2023/01/24 09:42:27;;;;;;;38.97;18.13;;;19.50;55.60;;;;;;5070788;28;20032;-75
2023/01/24 09:45:15;;;;;;;34.90;18.17;;;19.50;54.50;;;;;;5070508;28;20032;-75
2023/01/24 09:47:51;;;;;;;29.27;17.77;;;19.50;55.20;;;;;;5070559;28;20024;-75
2023/01/24 09:50:28;;;;;;;37.05;17.77;;;19.60;54.50;;;;;;5069106;28;20081;-75
2023/01/24 09:52:56;;;;;;;40.60;18.33;;;19.60;55.00;;;;;;5070748;28;20028;-76
2023/01/24 09:55:28;;;;;;;40.03;17.75;;;19.60;56.10;;;;;;5069989;28;20027;-75
2023/01/24 09:58:16;;;;;;;37.75;17.65;;;19.60;55.80;;;;;;5070596;28;20040;-74
2023/01/24 10:00:42;;;;;;;33.17;17.92;;;19.60;56.80;;;;;;5070187;28;20033;-75
2023/01/24 10:03:19;;;;;;;31.02;18.08;;;19.60;56.80;;;;;;5070597;28;20029;-75
2023/01/24 10:06:16;;;;;;;35.25;17.98;;;19.60;56.70;;;;;;5069676;28;20032;-74
2023/01/24 10:08:42;;;;;;;37.20;17.92;;;19.60;56.30;;;;;;5069226;28;20082;-75
2023/01/24 10:11:20;;;;;;;34.92;17.55;;;19.60;55.50;;;;;;5068874;28;20508;-74
2023/01/24 10:14:08;;;;;;;40.33;17.85;;;19.60;56.70;;;;;;5069382;28;20534;-75
2023/01/24 10:16:59;;;;;;;35.88;17.52;;;19.60;57.90;;;;;;5068555;28;20037;-74
2023/01/24 10:19:53;;;;;;;30.27;16.33;;;19.60;56.00;;;;;;5069109;28;20039;-74
2023/01/24 10:22:25;;;;;;;29.27;16.83;;;19.60;55.90;;;;;;5070158;28;20025;-75
2023/01/24 10:25:03;;;;;;;35.70;18.83;;;19.60;56.00;;;;;;5072609;28;20033;-74
2023/01/24 10:27:36;;;;;;;32.22;18.00;;;19.70;57.00;;;;;;5073855;28;20554;-74
2023/01/24 10:30:17;;;;;;;28.48;16.95;;;19.70;56.00;;;;;;5074332;28;20027;-75
2023/01/24 10:32:46;;;;;;;31.33;17.95;;;19.60;56.50;;;;;;5074071;28;20032;-75
2023/01/24 10:35:53;;;;;;;35.10;19.77;;;19.60;56.90;;;;;;5073613;28;20028;-74
2023/01/24 10:38:19;;;;;;;32.70;19.20;;;19.60;57.10;;;;;;5071974;28;20041;-75
2023/01/24 10:41:09;;;;;;;29.77;18.45;;;19.70;57.70;;;;;;5073542;28;20540;-74
2023/01/24 10:43:36;;;;;;;;;;;19.70;59.40;;;;;;5074062;28;20048;-75
2023/01/24 10:46:33;;;;;;;31.80;17.50;;;19.70;58.20;;;;;;5072808;28;19912;-75
2023/01/24 10:49:01;;;;;;;30.98;18.20;;;19.70;57.10;;;;;;5073995;28;20100;-75
2023/01/24 10:51:27;;;;;;;33.63;18.15;;;19.60;58.40;;;;;;5073833;28;20106;-75
2023/01/24 10:54:01;;;;;;;29.17;18.05;;;19.60;58.10;;;;;;5073673;28;20056;-75
2023/01/24 10:56:27;;;;;;;29.90;16.77;;;19.60;59.30;;;;;;5072894;28;20059;-75
2023/01/24 10:59:06;;;;;;;29.65;17.48;;;19.60;59.30;;;;;;5073785;28;20056;-75
2023/01/24 11:01:42;;;;;;;27.98;18.05;;;19.60;59.60;;;;;;5073304;28;20387;-75
2023/01/24 11:04:21;;;;;;;27.52;17.45;;;19.60;58.20;;;;;;5073985;28;20036;-76
2023/01/24 11:06:49;;;;;;;30.02;17.20;;;19.60;59.10;;;;;;5071330;28;20046;-76
2023/01/24 11:09:20;;;;;;;31.10;17.60;;;19.60;58.20;;;;;;5073283;28;20029;-75
2023/01/24 11:11:50;;;;;;;33.20;16.02;;;19.60;59.10;;;;;;5073351;28;20388;-75
2023/01/24 11:14:23;;;;;;;27.63;16.13;;;19.60;59.10;;;;;;5071981;28;20020;-75
2023/01/24 11:16:51;;;;;;;32.53;17.17;;;19.60;59.20;;;;;;5072608;28;20519;-75
2023/01/24 11:19:29;;;;;;;29.27;16.58;;;19.60;59.10;;;;;;5055336;28;20499;-75
2023/01/24 11:21:58;;;;;;;29.63;16.52;;;19.60;58.30;;;;;;5055052;28;20060;-76
2023/01/24 11:24:24;;;;;;;29.75;16.27;;;19.60;58.80;;;;;;5068756;28;20491;-75
2023/01/24 11:26:57;;;;;;;27.60;15.38;;;19.60;58.90;;;;;;5069436;28;20021;-76
2023/01/24 11:29:24;;;;;;;33.60;16.23;;;19.60;58.30;;;;;;5069104;28;20060;-77
2023/01/24 11:31:56;;;;;;;30.73;15.48;;;19.50;58.60;;;;;;5049642;28;20090;-75
2023/01/24 11:34:56;;;;;;;37.58;16.10;;;19.50;58.70;;;;;;5050055;28;20048;-75
2023/01/24 11:37:43;;;;;;;30.88;15.27;;;19.50;58.80;;;;;;5049103;28;20065;-76
2023/01/24 11:40:36;;;;;;;27.95;15.75;;;19.50;58.80;;;;;;5050436;28;20040;-75
2023/01/24 11:43:21;;;;;;;28.75;15.48;;;19.50;58.60;;;;;;5049190;28;20033;-76
2023/01/24 11:45:59;;;;;;;28.15;15.18;;;19.60;59.10;;;;;;5048724;28;20037;-76
2023/01/24 11:48:37;;;;;;;26.75;15.90;;;19.60;58.50;;;;;;5050377;28;20029;-76
2023/01/24 11:51:02;;;;;;;31.50;16.38;;;19.50;58.00;;;;;;5050468;28;20029;-76
2023/01/24 11:53:57;;;;;;;35.15;16.85;;;19.50;59.60;;;;;;5049088;28;20572;-76
2023/01/24 11:56:27;;;;;;;36.45;16.92;;;19.50;58.60;;;;;;5065885;28;20032;-75
2023/01/24 11:59:32;;;;;;;32.17;17.25;;;19.50;58.10;;;;;;5067335;28;20139;-75
2023/01/24 12:02:00;;;;;;;28.15;17.38;;;19.40;58.10;;;;;;5069194;28;20032;-76
2023/01/24 12:04:50;;;;;;;30.85;16.20;;;19.40;58.30;;;;;;5068179;28;20036;-75
2023/01/24 12:07:40;;;;;;;32.08;16.95;;;19.40;58.20;;;;;;5066373;28;20036;-75
2023/01/24 12:10:15;;;;;;;;;;;19.40;58.40;;;;;;5069450;28;20023;-75
2023/01/24 12:12:46;;;;;;;28.48;15.80;;;19.40;58.50;;;;;;5069672;28;19908;-76
2023/01/24 12:15:38;;;;;;;27.20;16.45;;;19.40;57.90;;;;;;5068666;28;20468;-76
2023/01/24 12:18:03;;;;;;;28.40;16.50;;;19.50;58.30;;;;;;5068671;28;20036;-75
2023/01/24 12:21:04;;;;;;;30.77;16.23;;;19.40;57.90;;;;;;5051751;28;20508;-76
2023/01/24 12:23:54;;;;;;;32.03;16.10;;;19.40;57.90;;;;;;5057244;28;20040;-76
2023/01/24 12:26:25;;;;;;;27.55;16.52;;;19.40;58.00;;;;;;5068873;28;20056;-76
2023/01/24 12:29:03;;;;;;;25.48;15.82;;;19.50;57.70;;;;;;5068537;28;20447;-75
2023/01/24 12:31:59;;;;;;;30.60;15.88;;;19.40;57.50;;;;;;5069239;28;20033;-75
2023/01/24 12:34:32;;;;;;;34.78;17.05;;;19.40;57.80;;;;;;5067421;28;20043;-76
2023/01/24 12:37:11;;;;;;;30.10;17.35;;;19.40;57.60;;;;;;5068654;28;20046;-76
2023/01/24 12:40:00;;;;;;;30.40;16.10;;;19.50;57.80;;;;;;5068164;28;20389;-76
2023/01/24 12:43:05;;;;;;;32.97;17.08;;;19.40;57.70;;;;;;5049434;28;20036;-76
2023/01/24 12:45:56;;;;;;;29.65;15.93;;;19.50;57.90;;;;;;5049664;28;20032;-75
2023/01/24 12:48:58;;;;;;;30.45;17.60;;;19.50;58.00;;;;;;5047500;28;20397;-76
2023/01/24 12:51:42;;;;;;;38.78;19.52;;;19.40;58.00;;;;;;5047131;28;20028;-76
2023/01/24 12:54:14;;;;;;;37.80;18.17;;;19.50;58.10;;;;;;5047549;28;20021;-75
2023/01/24 12:56:52;;;;;;;32.75;18.75;;;19.50;57.90;;;;;;5047209;28;20151;-76
2023/01/24 12:59:33;;;;;;;36.83;19.08;;;19.60;58.00;;;;;;5047154;28;20116;-76
2023/01/24 13:02:17;;;;;;;34.08;17.65;;;19.60;58.20;;;;;;5064165;23;20442;-73
2023/01/24 13:05:04;;;;;;;32.55;18.95;;;19.60;59.20;;;;;;5058375;28;20123;-71
2023/01/24 13:07:53;;;;;;;33.17;17.75;;;19.70;58.60;;;;;;5046703;28;20017;-72
2023/01/24 13:10:25;;;;;;;33.93;17.77;;;19.70;59.20;;;;;;5051522;28;20465;-73
2023/01/24 13:12:52;;;;;;;41.40;18.58;;;19.70;59.50;;;;;;5067802;28;20043;-73
2023/01/24 13:15:37;;;;;;;43.10;17.73;;;19.70;59.70;;;;;;5049781;28;20115;-72
2023/01/24 13:18:31;;;;;;;45.83;19.08;;;19.70;60.10;;;;;;5068545;28;20484;-71
2023/01/24 13:21:06;;;;;;;36.88;20.20;;;19.80;61.00;;;;;;5063788;28;20119;-73
2023/01/24 13:24:02;;;;;;;38.28;19.38;;;19.70;52.80;;;;;;5068223;28;20047;-74
2023/01/24 13:26:37;;;;;;;40.33;18.52;;;19.40;50.90;;;;;;5068134;28;20507;-72
2023/01/24 13:29:23;;;;;;;37.80;19.08;;;19.20;49.40;;;;;;5066826;28;20040;-73